Time;durP1;ratioP1;P1;durP2;ratioP2;P2;SDS_P1;SDS_P2;PMS_P1;PMS_P2;Temp;Humidity;BMP_temperature;BMP_pressure;BME280_temperature;BME280_humidity;BME280_pressure;Samples;Min_cycle;Max_cycle;Signal;HPM_P1;HPM_P2
2021/01/12 00:00:13;;;;;;;1999.90;999.90;;;7.10;99.90;;;;;;6238669;23;20020;-94
2021/01/12 00:02:40;;;;;;;1999.90;999.90;;;7.10;99.90;;;;;;6218316;23;20020;-93
2021/01/12 00:05:09;;;;;;;1999.90;999.90;;;7.10;99.90;;;;;;6218423;23;20016;-93
2021/01/12 00:07:37;;;;;;;1999.90;999.90;;;7.10;99.90;;;;;;6218187;23;20027;-93
2021/01/12 00:10:06;;;;;;;1999.90;999.90;;;7.10;99.90;;;;;;6217945;23;20012;-93
2021/01/12 00:12:33;;;;;;;1999.90;999.90;;;7.10;99.90;;;;;;6217906;23;20024;-93
2021/01/12 00:15:00;;;;;;;1999.90;999.90;;;7.10;99.90;;;;;;6218083;23;20020;-93
2021/01/12 00:17:28;;;;;;;1999.90;999.90;;;7.10;99.90;;;;;;6217970;23;20025;-92
2021/01/12 00:19:56;;;;;;;1999.90;999.90;;;7.10;99.90;;;;;;6217692;23;20055;-93
2021/01/12 00:22:23;;;;;;;1999.90;999.90;;;7.10;99.90;;;;;;6217994;23;20074;-92
2021/01/12 00:24:51;;;;;;;1999.90;999.90;;;7.10;99.90;;;;;;6217753;23;20070;-93
2021/01/12 00:27:23;;;;;;;1999.90;999.90;;;7.10;99.90;;;;;;6217862;23;20066;-93
2021/01/12 00:29:51;;;;;;;1999.90;999.90;;;7.10;99.90;;;;;;6217970;23;20020;-93
2021/01/12 00:32:20;;;;;;;1999.90;999.90;;;7.10;99.90;;;;;;6217484;23;20448;-93
2021/01/12 00:34:49;;;;;;;1999.90;999.90;;;7.10;99.90;;;;;;6217387;23;20356;-93
2021/01/12 00:37:20;;;;;;;1999.90;999.90;;;7.10;99.90;;;;;;6217670;23;20027;-93
2021/01/12 00:39:47;;;;;;;1999.90;999.90;;;7.10;99.90;;;;;;6217509;23;20039;-92
2021/01/12 00:42:14;;;;;;;1999.90;999.90;;;7.10;99.90;;;;;;6217474;23;20083;-93
2021/01/12 00:44:42;;;;;;;1999.90;999.90;;;7.00;99.90;;;;;;6217730;23;20031;-93
2021/01/12 00:47:10;;;;;;;1999.90;999.90;;;7.00;99.90;;;;;;6217646;23;20017;-92
2021/01/12 00:49:38;;;;;;;1999.90;999.90;;;7.10;99.90;;;;;;6217301;23;20013;-92
2021/01/12 00:52:09;;;;;;;1999.90;999.90;;;7.10;99.90;;;;;;6217274;23;20387;-92
2021/01/12 00:54:36;;;;;;;1999.90;999.90;;;7.10;99.90;;;;;;6217146;23;20388;-92
2021/01/12 01:00:50;;;;;;;1999.90;999.90;;;7.10;99.90;;;;;;6233679;23;20040;-93
2021/01/12 01:03:17;;;;;;;1999.90;999.90;;;7.10;99.90;;;;;;6216994;23;20021;-92
2021/01/12 01:05:44;;;;;;;1999.90;999.90;;;7.10;99.90;;;;;;6217242;23;20025;-92
2021/01/12 01:08:12;;;;;;;1999.90;999.90;;;7.10;99.90;;;;;;6217089;23;20024;-92
2021/01/12 01:10:40;;;;;;;1999.90;999.90;;;7.10;99.90;;;;;;6217328;23;20478;-92
2021/01/12 01:13:07;;;;;;;1999.90;999.90;;;7.10;99.90;;;;;;6216678;23;20460;-92
2021/01/12 01:15:34;;;;;;;1999.90;999.90;;;7.10;99.90;;;;;;6217496;23;20096;-92
2021/01/12 01:18:01;;;;;;;1999.90;999.90;;;7.10;99.90;;;;;;6217128;23;20020;-91
2021/01/12 01:20:28;;;;;;;1999.90;999.90;;;7.10;99.90;;;;;;6217356;23;20021;-92
2021/01/12 01:22:55;;;;;;;1999.90;999.90;;;7.20;99.90;;;;;;6217023;23;20020;-92
2021/01/12 01:25:23;;;;;;;1999.90;999.90;;;7.20;99.90;;;;;;6216773;23;20082;-92
2021/01/12 01:27:49;;;;;;;1999.90;999.90;;;7.20;99.90;;;;;;6216706;23;20411;-92
2021/01/12 01:30:18;;;;;;;1999.90;999.90;;;7.20;99.90;;;;;;6216478;23;20013;-91
2021/01/12 01:32:45;;;;;;;1999.90;999.90;;;7.20;99.90;;;;;;6216714;23;20391;-92
2021/01/12 01:35:12;;;;;;;1999.90;999.90;;;7.20;99.90;;;;;;6216572;23;20021;-92
2021/01/12 01:37:49;;;;;;;1999.90;999.90;;;7.20;99.90;;;;;;6216724;23;20020;-92
2021/01/12 01:40:19;;;;;;;1999.90;999.90;;;7.30;99.90;;;;;;6217176;23;20428;-92
2021/01/12 01:42:48;;;;;;;1999.90;999.90;;;7.20;99.90;;;;;;6217421;23;20021;-92
2021/01/12 01:45:15;;;;;;;1999.90;999.90;;;7.30;99.90;;;;;;6217089;23;20086;-92
2021/01/12 01:47:45;;;;;;;1999.90;999.90;;;7.30;99.90;;;;;;6217340;23;20052;-92
2021/01/12 01:50:14;;;;;;;1999.90;999.90;;;7.30;99.90;;;;;;6216558;23;20043;-92
2021/01/12 01:52:44;;;;;;;1999.90;999.90;;;7.40;99.90;;;;;;6216600;23;20399;-92
2021/01/12 01:55:14;;;;;;;1999.90;999.90;;;7.40;99.90;;;;;;6216671;23;20021;-92
2021/01/12 01:57:42;;;;;;;1999.90;999.90;;;7.50;99.90;;;;;;6216478;23;20029;-91
2021/01/12 02:00:11;;;;;;;1999.90;999.90;;;7.50;99.90;;;;;;6216495;23;20017;-92
2021/01/12 02:02:45;;;;;;;1999.90;999.90;;;7.50;99.90;;;;;;6216812;23;20067;-92
2021/01/12 02:05:14;;;;;;;1999.90;999.90;;;7.50;99.90;;;;;;6217052;23;20028;-92
2021/01/12 02:07:44;;;;;;;1999.90;999.90;;;7.60;99.90;;;;;;6216945;23;20044;-91
2021/01/12 02:10:14;;;;;;;1999.90;999.90;;;7.60;99.90;;;;;;6216940;23;20017;-92
2021/01/12 02:12:47;;;;;;;1999.90;999.90;;;7.60;99.90;;;;;;6216241;23;20526;-92
2021/01/12 02:15:20;;;;;;;1999.90;999.90;;;7.70;99.90;;;;;;6215971;23;20020;-92
2021/01/12 02:17:48;;;;;;;1999.90;999.90;;;7.70;99.90;;;;;;6216616;23;20071;-92
2021/01/12 02:20:16;;;;;;;1999.90;999.90;;;7.70;99.90;;;;;;6216778;23;20074;-91
2021/01/12 02:22:44;;;;;;;1999.90;999.90;;;7.80;99.90;;;;;;6216465;23;20020;-91
2021/01/12 02:25:14;;;;;;;1999.90;999.90;;;7.80;99.90;;;;;;6216345;23;20028;-92
2021/01/12 02:27:42;;;;;;;1999.90;999.90;;;7.80;99.90;;;;;;6216292;23;20103;-92
2021/01/12 02:30:10;;;;;;;1999.90;999.90;;;7.80;99.90;;;;;;6218142;23;20023;-91
2021/01/12 02:32:38;;;;;;;1999.90;999.90;;;7.90;99.90;;;;;;6230479;23;20020;-91
2021/01/12 02:35:07;;;;;;;1999.90;999.90;;;7.90;99.90;;;;;;6225218;23;20020;-91
2021/01/12 02:37:37;;;;;;;1999.90;999.90;;;7.80;99.90;;;;;;6224983;23;20024;-92
2021/01/12 02:40:05;;;;;;;1999.90;999.90;;;7.90;99.90;;;;;;6231139;23;20073;-91
2021/01/12 02:42:34;;;;;;;1999.90;999.90;;;7.90;99.90;;;;;;6233955;23;20031;-91
2021/01/12 02:45:01;;;;;;;1999.90;999.90;;;7.90;99.90;;;;;;6221601;23;20021;-92
2021/01/12 02:47:28;;;;;;;1999.90;999.90;;;7.90;99.90;;;;;;6216980;23;20016;-91
2021/01/12 02:49:55;;;;;;;1999.90;999.90;;;7.90;99.90;;;;;;6216000;23;20012;-92
2021/01/12 02:52:22;;;;;;;1999.90;999.90;;;7.90;99.90;;;;;;6216269;23;20024;-92
2021/01/12 02:54:49;;;;;;;1999.90;999.90;;;8.00;99.90;;;;;;6216762;23;20043;-91
2021/01/12 02:57:16;;;;;;;1999.90;999.90;;;7.90;99.90;;;;;;6216434;23;20040;-91
2021/01/12 02:59:44;;;;;;;1999.90;999.90;;;7.90;99.90;;;;;;6216773;23;20017;-92
2021/01/12 03:02:11;;;;;;;1999.90;999.90;;;7.90;99.90;;;;;;6216157;23;20044;-91
2021/01/12 03:04:38;;;;;;;1999.90;999.90;;;7.90;99.90;;;;;;6216152;23;20436;-91
2021/01/12 03:07:05;;;;;;;1999.90;999.90;;;7.90;99.90;;;;;;6226962;23;20079;-96
2021/01/12 03:09:36;;;;;;;1999.90;999.90;;;7.90;99.90;;;;;;6231462;23;20036;-96
2021/01/12 03:12:04;;;;;;;1999.90;999.90;;;7.90;99.90;;;;;;6229917;23;20483;-96
2021/01/12 03:14:32;;;;;;;1999.90;999.90;;;7.90;99.90;;;;;;6229611;23;20035;-96
2021/01/12 03:17:00;;;;;;;1999.90;999.90;;;7.90;99.90;;;;;;6231062;23;20039;-96
2021/01/12 03:19:28;;;;;;;1999.90;999.90;;;8.00;99.90;;;;;;6231597;23;20016;-96
2021/01/12 03:21:56;;;;;;;1999.90;999.90;;;7.90;99.90;;;;;;6229908;23;20023;-96
2021/01/12 03:24:24;;;;;;;1999.90;999.90;;;8.00;99.90;;;;;;6229685;23;20023;-96
2021/01/12 03:26:51;;;;;;;1999.90;999.90;;;8.00;99.90;;;;;;6230597;23;20108;-96
2021/01/12 03:29:19;;;;;;;1999.90;999.90;;;8.00;99.90;;;;;;6230308;23;20020;-96
2021/01/12 03:31:47;;;;;;;1999.90;999.90;;;8.00;99.90;;;;;;6225953;23;20012;-96
2021/01/12 03:34:16;;;;;;;1999.90;999.90;;;8.00;99.90;;;;;;6226927;23;20028;-96
2021/01/12 03:36:43;;;;;;;1999.90;999.90;;;8.00;99.90;;;;;;6226927;23;20024;-96
2021/01/12 03:39:11;;;;;;;1999.90;999.90;;;8.00;99.90;;;;;;6226018;23;20020;-96
2021/01/12 03:41:39;;;;;;;1999.90;999.90;;;8.00;99.90;;;;;;6225552;23;20019;-96
2021/01/12 03:44:06;;;;;;;1999.90;999.90;;;8.00;99.90;;;;;;6224163;23;20020;-96
2021/01/12 03:46:34;;;;;;;1999.90;999.90;;;8.00;99.90;;;;;;6224954;23;20021;-96
2021/01/12 03:49:05;;;;;;;1999.90;999.90;;;8.00;99.90;;;;;;6225570;23;20036;-96
2021/01/12 03:51:34;;;;;;;1999.90;999.90;;;8.00;99.90;;;;;;6228923;23;20020;-96
2021/01/12 03:54:02;;;;;;;1999.90;999.90;;;8.00;99.90;;;;;;6230626;23;20033;-96
2021/01/12 03:56:30;;;;;;;1999.90;999.90;;;8.00;99.90;;;;;;6230515;23;20020;-96
2021/01/12 03:59:00;;;;;;;1999.90;999.90;;;8.00;99.90;;;;;;6229678;23;20467;-96
2021/01/12 04:01:27;;;;;;;1999.90;999.90;;;8.00;99.90;;;;;;6229237;23;20016;-96
2021/01/12 04:03:58;;;;;;;1999.90;999.90;;;8.00;99.90;;;;;;6230479;23;20020;-96
2021/01/12 04:06:26;;;;;;;1999.90;999.90;;;8.00;99.90;;;;;;6228700;23;20040;-96
2021/01/12 04:08:55;;;;;;;1999.90;999.90;;;8.10;99.90;;;;;;6225375;23;20021;-96
2021/01/12 04:11:22;;;;;;;1999.90;999.90;;;8.10;99.90;;;;;;6224591;23;20099;-96
2021/01/12 04:13:49;;;;;;;1999.90;999.90;;;8.00;99.90;;;;;;6223428;23;20047;-96
2021/01/12 04:16:17;;;;;;;1999.90;999.90;;;8.00;99.90;;;;;;6221727;23;20020;-96
2021/01/12 04:18:44;;;;;;;1999.90;999.90;;;8.00;99.90;;;;;;6220679;23;20075;-96
2021/01/12 04:21:12;;;;;;;1999.90;999.90;;;8.00;99.90;;;;;;6221444;23;20078;-96
2021/01/12 04:23:39;;;;;;;1999.90;999.90;;;8.00;99.90;;;;;;6220029;23;20028;-96
2021/01/12 04:26:07;;;;;;;1999.90;999.90;;;8.00;99.90;;;;;;6222248;23;20021;-96
2021/01/12 04:28:35;;;;;;;1999.90;999.90;;;8.00;99.90;;;;;;6226819;23;20017;-96
2021/01/12 04:31:02;;;;;;;1999.90;999.90;;;8.00;99.90;;;;;;6227049;23;20021;-96
2021/01/12 04:33:30;;;;;;;1999.90;999.90;;;8.00;99.90;;;;;;6226500;23;20036;-96
2021/01/12 04:35:57;;;;;;;1999.90;999.90;;;7.90;99.90;;;;;;6227017;23;20075;-96
2021/01/12 04:38:25;;;;;;;1999.90;999.90;;;8.00;99.90;;;;;;6227280;23;20020;-96
2021/01/12 04:40:53;;;;;;;1999.90;999.90;;;7.90;99.90;;;;;;6229247;23;20021;-96
2021/01/12 04:43:21;;;;;;;1999.90;999.90;;;7.90;99.90;;;;;;6231119;23;20071;-96
2021/01/12 04:45:49;;;;;;;1999.90;999.90;;;7.90;99.90;;;;;;6233572;23;20020;-96
2021/01/12 04:48:16;;;;;;;1999.90;999.90;;;7.90;99.90;;;;;;6233464;23;20047;-96
2021/01/12 04:50:44;;;;;;;1999.90;999.90;;;7.90;99.90;;;;;;6233070;23;20016;-96
2021/01/12 04:53:11;;;;;;;1999.90;999.90;;;7.90;99.90;;;;;;6218592;23;20095;-92
2021/01/12 04:55:42;;;;;;;1999.90;999.90;;;7.90;99.90;;;;;;6218201;23;20051;-92
2021/01/12 04:58:09;;;;;;;1999.90;999.90;;;7.80;99.90;;;;;;6224511;23;20021;-92
2021/01/12 05:00:38;;;;;;;1999.90;999.90;;;7.80;99.90;;;;;;6225420;23;20021;-92
2021/01/12 05:03:06;;;;;;;1999.90;999.90;;;7.80;99.90;;;;;;6230107;23;20035;-92
2021/01/12 05:05:37;;;;;;;1999.90;999.90;;;7.90;99.90;;;;;;6234953;23;20024;-92
2021/01/12 05:08:06;;;;;;;1999.90;999.90;;;7.90;99.90;;;;;;6233826;23;20025;-92
2021/01/12 05:10:36;;;;;;;1999.90;999.90;;;7.80;99.90;;;;;;6223697;23;20462;-91
2021/01/12 05:13:05;;;;;;;1999.90;999.90;;;7.90;99.90;;;;;;6217302;23;20020;-91
2021/01/12 05:15:33;;;;;;;1999.90;999.90;;;7.80;99.90;;;;;;6216908;23;20040;-92
2021/01/12 05:18:04;;;;;;;1999.90;999.90;;;7.80;99.90;;;;;;6217444;23;20078;-92
2021/01/12 05:20:37;;;;;;;1999.90;999.90;;;7.80;99.90;;;;;;6217013;23;20016;-92
2021/01/12 05:23:07;;;;;;;1999.90;999.90;;;7.80;99.90;;;;;;6216988;23;20078;-92
2021/01/12 05:25:36;;;;;;;1999.90;999.90;;;7.80;99.90;;;;;;6217963;23;20020;-92
2021/01/12 05:28:04;;;;;;;1999.90;999.90;;;7.80;99.90;;;;;;6216982;23;20502;-92
2021/01/12 05:30:32;;;;;;;1999.90;999.90;;;7.80;99.90;;;;;;6216857;23;20201;-92
2021/01/12 05:33:00;;;;;;;1999.90;999.90;;;7.80;99.90;;;;;;6216646;23;20025;-91
2021/01/12 05:35:32;;;;;;;1999.90;999.90;;;7.80;99.90;;;;;;6217153;23;20469;-96
2021/01/12 05:38:03;;;;;;;1999.90;999.90;;;7.70;99.90;;;;;;6217175;23;20463;-96
2021/01/12 05:40:32;;;;;;;1999.90;999.90;;;7.70;99.90;;;;;;6218564;23;20035;-95
2021/01/12 05:43:06;;;;;;;1999.90;999.90;;;7.80;99.90;;;;;;6217267;23;20024;-95
2021/01/12 05:45:35;;;;;;;1999.90;999.90;;;7.70;99.90;;;;;;6217154;23;20027;-95
2021/01/12 05:48:04;;;;;;;1999.90;999.90;;;7.80;99.90;;;;;;6217355;23;20115;-96
2021/01/12 05:50:31;;;;;;;1999.90;999.90;;;7.70;99.90;;;;;;6217523;23;20017;-96
2021/01/12 05:53:06;;;;;;;1999.90;999.90;;;7.70;99.90;;;;;;6217763;23;20075;-95
2021/01/12 05:55:38;;;;;;;1999.90;999.90;;;7.80;99.90;;;;;;6217308;23;20047;-96
2021/01/12 05:58:13;;;;;;;1999.90;999.90;;;7.70;99.90;;;;;;6217734;23;20020;-95
2021/01/12 06:00:41;;;;;;;;;;;7.80;99.90;;;;;;6217808;23;20444;-95
2021/01/12 06:03:15;;;;;;;1999.90;999.90;;;7.70;99.90;;;;;;6217995;23;19943;-96
2021/01/12 06:05:45;;;;;;;1999.90;999.90;;;7.70;99.90;;;;;;6217458;23;20024;-95
2021/01/12 06:08:13;;;;;;;1999.90;999.90;;;7.70;99.90;;;;;;6216859;23;20029;-95
2021/01/12 06:10:43;;;;;;;1999.90;999.90;;;7.70;99.90;;;;;;6218005;23;20020;-96
2021/01/12 06:13:14;;;;;;;1999.90;999.90;;;7.60;99.90;;;;;;6217629;23;20020;-96
2021/01/12 06:15:43;;;;;;;1999.90;999.90;;;7.60;99.90;;;;;;6217257;23;20352;-96
2021/01/12 06:18:15;;;;;;;1999.90;999.90;;;7.60;99.90;;;;;;6217165;23;20040;-96
2021/01/12 06:21:09;;;;;;;1999.90;999.90;;;7.60;99.90;;;;;;6218003;23;20036;-96
2021/01/12 06:23:45;;;;;;;1999.90;999.90;;;7.60;99.90;;;;;;6216761;23;20020;-96
2021/01/12 06:26:14;;;;;;;1999.90;999.90;;;7.50;99.90;;;;;;6218292;23;20028;-95
2021/01/12 06:28:42;;;;;;;1999.90;999.90;;;7.60;99.90;;;;;;6217205;23;20075;-95
2021/01/12 06:31:11;;;;;;;1999.90;999.90;;;7.50;99.90;;;;;;6217026;23;20067;-96
2021/01/12 06:33:40;;;;;;;1999.90;999.90;;;7.50;99.90;;;;;;6218188;23;20047;-95
2021/01/12 06:36:08;;;;;;;1999.90;999.90;;;7.50;99.90;;;;;;6217604;23;20025;-96
2021/01/12 06:38:37;;;;;;;1999.90;999.90;;;7.50;99.90;;;;;;6217604;23;20021;-95
2021/01/12 06:41:07;;;;;;;1999.90;999.90;;;7.50;99.90;;;;;;6217922;23;20021;-95
2021/01/12 06:43:35;;;;;;;1999.90;999.90;;;7.50;99.90;;;;;;6217397;23;20082;-96
2021/01/12 06:46:03;;;;;;;1999.90;999.90;;;7.50;99.90;;;;;;6217151;23;20020;-95
2021/01/12 06:48:32;;;;;;;1999.90;999.90;;;7.40;99.90;;;;;;6218258;23;20099;-96
2021/01/12 06:51:00;;;;;;;1999.90;999.90;;;7.40;99.90;;;;;;6217531;23;20492;-95
2021/01/12 06:53:28;;;;;;;1999.90;999.90;;;7.40;99.90;;;;;;6217549;23;20079;-96
2021/01/12 06:56:05;;;;;;;1999.90;999.90;;;7.50;99.90;;;;;;6217614;23;20032;-96
2021/01/12 06:58:33;;;;;;;1999.90;999.90;;;7.50;99.90;;;;;;6217830;23;20443;-96
2021/01/12 07:01:01;;;;;;;1999.90;999.90;;;7.50;99.90;;;;;;6218209;23;20020;-96
2021/01/12 07:03:30;;;;;;;1999.90;999.90;;;7.50;99.90;;;;;;6219922;23;20024;-96
2021/01/12 07:06:03;;;;;;;1999.90;999.90;;;7.40;99.90;;;;;;6218820;23;20048;-95
2021/01/12 07:08:31;;;;;;;1999.90;999.90;;;7.30;99.90;;;;;;6219960;23;20020;-96
2021/01/12 07:11:03;;;;;;;1999.90;999.90;;;7.30;99.90;;;;;;6219482;23;20047;-96
2021/01/12 07:13:36;;;;;;;1999.90;999.90;;;7.20;99.90;;;;;;6220777;23;20027;-95
2021/01/12 07:16:13;;;;;;;1999.90;999.90;;;7.20;99.90;;;;;;6220569;23;20075;-96
2021/01/12 07:18:43;;;;;;;1999.90;999.90;;;7.10;99.90;;;;;;6225508;23;20020;-95
2021/01/12 07:21:13;;;;;;;1999.90;999.90;;;7.10;99.90;;;;;;6241149;23;20043;-95
2021/01/12 07:23:42;;;;;;;1999.90;999.90;;;7.10;99.90;;;;;;6244482;23;20069;-96
2021/01/12 07:26:10;;;;;;;1999.90;999.90;;;7.00;99.90;;;;;;6240300;23;20047;-95
2021/01/12 07:28:45;;;;;;;1999.90;999.90;;;7.00;99.90;;;;;;6221320;23;20051;-96
2021/01/12 07:31:12;;;;;;;1999.90;999.90;;;7.00;99.90;;;;;;6231860;23;20047;-96
2021/01/12 07:33:41;;;;;;;1999.90;999.90;;;7.00;99.90;;;;;;6219453;23;20023;-95
2021/01/12 07:36:08;;;;;;;1999.90;999.90;;;7.00;99.90;;;;;;6218675;23;20075;-96
2021/01/12 07:38:36;;;;;;;1999.90;999.90;;;6.90;99.90;;;;;;6218607;23;20027;-95
2021/01/12 07:41:04;;;;;;;1999.90;999.90;;;6.80;99.90;;;;;;6218666;23;20016;-95
2021/01/12 07:43:32;;;;;;;1999.90;999.90;;;6.70;99.90;;;;;;6218245;23;20452;-96
2021/01/12 07:46:01;;;;;;;1999.90;999.90;;;6.70;99.90;;;;;;6218519;23;20017;-96
2021/01/12 07:48:29;;;;;;;1999.90;999.90;;;6.60;99.90;;;;;;6219059;23;20024;-95
2021/01/12 07:51:01;;;;;;;1999.90;999.90;;;6.60;99.90;;;;;;6218041;23;20091;-95
2021/01/12 07:53:31;;;;;;;1999.90;999.90;;;6.60;99.90;;;;;;6218945;23;20020;-93
2021/01/12 07:56:00;;;;;;;1999.90;999.90;;;6.50;99.90;;;;;;6218131;23;20032;-93
2021/01/12 07:58:28;;;;;;;1999.90;999.90;;;6.60;99.90;;;;;;6217757;23;20040;-93
2021/01/12 08:00:55;;;;;;;1999.90;999.90;;;6.60;99.90;;;;;;6217458;23;20020;-94
2021/01/12 08:03:35;;;;;;;1999.90;999.90;;;6.50;99.90;;;;;;6218178;23;20104;-93
2021/01/12 08:06:04;;;;;;;1999.90;999.90;;;6.50;99.90;;;;;;6217663;23;20028;-92
2021/01/12 08:08:31;;;;;;;1999.90;999.90;;;6.50;99.90;;;;;;6217533;23;20309;-92
2021/01/12 08:11:00;;;;;;;1999.90;999.90;;;6.40;99.90;;;;;;6215711;23;20071;-92
2021/01/12 08:13:27;;;;;;;1999.90;999.90;;;6.50;99.90;;;;;;6214960;23;20044;-93
2021/01/12 08:15:55;;;;;;;1999.90;999.90;;;6.50;99.90;;;;;;6217044;23;20048;-92
2021/01/12 08:18:30;;;;;;;1999.90;999.90;;;6.40;99.90;;;;;;6216451;23;20024;-92
2021/01/12 08:20:57;;;;;;;1999.90;999.90;;;6.40;99.90;;;;;;6216974;23;20337;-92
2021/01/12 08:23:24;;;;;;;1999.90;999.90;;;6.40;99.90;;;;;;6217351;23;20024;-92
2021/01/12 08:25:51;;;;;;;1999.90;999.90;;;6.40;99.90;;;;;;6216282;23;20016;-92
2021/01/12 08:28:19;;;;;;;1999.90;999.90;;;6.40;99.90;;;;;;6216085;23;20046;-92
2021/01/12 08:30:46;;;;;;;1999.90;999.90;;;6.40;99.90;;;;;;6217233;23;20095;-92
2021/01/12 08:33:16;;;;;;;1999.90;999.90;;;6.30;99.90;;;;;;6217041;23;20043;-94
2021/01/12 08:35:48;;;;;;;1999.90;999.90;;;6.30;99.90;;;;;;6217975;23;20032;-93
2021/01/12 08:38:16;;;;;;;1999.90;999.90;;;6.20;99.90;;;;;;6217403;23;20116;-93
2021/01/12 08:40:46;;;;;;;1999.90;999.90;;;6.20;99.90;;;;;;6217700;23;20051;-94
2021/01/12 08:43:51;;;;;;;1999.90;999.90;;;6.20;99.90;;;;;;6217780;23;20021;-94
2021/01/12 08:46:35;;;;;;;1999.90;999.90;;;6.20;99.90;;;;;;6217573;23;20027;-94
2021/01/12 08:49:02;;;;;;;1999.90;999.90;;;6.20;99.90;;;;;;6218016;23;20020;-93
2021/01/12 09:21:43;;;;;;;1999.90;999.90;;;6.10;99.90;;;;;;6178091;23;20025;-96
2021/01/12 09:35:44;;;;;;;;;;;;;;;;;;;;;
2021/01/12 10:07:33;;;;;;;1999.90;999.90;;;6.00;99.90;;;;;;6184775;23;20017;-95
2021/01/12 10:10:28;;;;;;;1999.90;999.90;;;6.00;99.90;;;;;;6185273;23;20021;-95
2021/01/12 10:17:16;;;;;;;1999.90;999.90;;;5.90;99.90;;;;;;5941369;23;20036;-96
2021/01/12 10:27:46;;;;;;;1999.90;999.90;;;5.80;99.90;;;;;;5954575;24;20057;-94
2021/01/12 10:30:17;;;;;;;1999.90;999.90;;;5.80;99.90;;;;;;6005610;23;20027;-94
2021/01/12 10:32:54;;;;;;;1999.90;999.90;;;5.80;99.90;;;;;;6040120;23;20023;-94
2021/01/12 10:35:29;;;;;;;1999.90;999.90;;;5.80;99.90;;;;;;6158224;23;20096;-94
2021/01/12 10:38:03;;;;;;;1999.90;999.90;;;5.70;99.90;;;;;;6247539;23;20023;-93
2021/01/12 10:43:33;;;;;;;1999.90;999.90;;;5.70;99.90;;;;;;6189166;23;20024;-96
2021/01/12 10:46:30;;;;;;;1999.90;999.90;;;5.70;99.90;;;;;;6254360;23;20004;-96
2021/01/12 10:49:05;;;;;;;1999.90;999.90;;;5.70;99.90;;;;;;6238980;22;20024;-96
2021/01/12 10:57:15;;;;;;;1999.90;999.90;;;5.60;99.90;;;;;;6190716;23;20028;-96
2021/01/12 11:00:15;;;;;;;1999.90;999.90;;;5.60;99.90;;;;;;6190498;23;20356;-96
2021/01/12 11:02:42;;;;;;;1999.90;999.90;;;5.60;99.90;;;;;;6184744;23;20416;-95
2021/01/12 11:05:10;;;;;;;1999.90;999.90;;;5.60;99.90;;;;;;6186464;23;20021;-94
2021/01/12 11:07:46;;;;;;;1999.90;999.90;;;5.60;99.90;;;;;;6186844;23;20017;-95
2021/01/12 11:10:16;;;;;;;1999.90;999.90;;;5.60;99.90;;;;;;6186702;23;20021;-94
2021/01/12 11:13:40;;;;;;;1999.90;999.90;;;5.60;99.90;;;;;;6187580;23;20417;-94
2021/01/12 11:16:15;;;;;;;1999.90;999.90;;;5.60;99.90;;;;;;6186672;23;20024;-93
2021/01/12 11:18:42;;;;;;;1999.90;999.90;;;5.50;99.90;;;;;;6186508;23;20025;-93
2021/01/12 11:21:10;;;;;;;1999.90;999.90;;;5.60;99.90;;;;;;6186300;23;20024;-94
2021/01/12 11:23:40;;;;;;;1999.90;999.90;;;5.50;99.90;;;;;;6186741;23;20024;-93
2021/01/12 11:26:12;;;;;;;1999.90;999.90;;;5.50;99.90;;;;;;6186282;23;20051;-92
2021/01/12 11:28:41;;;;;;;1999.90;999.90;;;5.50;99.90;;;;;;6187097;23;20024;-93
2021/01/12 11:31:10;;;;;;;1999.90;999.90;;;5.50;99.90;;;;;;6186539;23;20021;-93
2021/01/12 11:33:40;;;;;;;1999.90;999.90;;;5.50;99.90;;;;;;6187803;23;20017;-93
2021/01/12 11:36:25;;;;;;;1999.90;999.90;;;5.50;99.90;;;;;;6189300;23;20049;-96
2021/01/12 11:38:56;;;;;;;1999.90;999.90;;;5.50;99.90;;;;;;6188422;23;20021;-94
2021/01/12 11:44:51;;;;;;;1999.90;999.90;;;5.50;99.90;;;;;;6186627;23;20032;-94
2021/01/12 11:47:22;;;;;;;1999.90;999.90;;;5.50;99.90;;;;;;6188004;23;20043;-93
2021/01/12 11:49:52;;;;;;;1999.90;999.90;;;5.50;99.90;;;;;;6188687;23;20021;-94
2021/01/12 11:52:19;;;;;;;1999.90;999.90;;;5.50;99.90;;;;;;6188308;23;20059;-94
2021/01/12 11:54:46;;;;;;;1999.90;999.90;;;5.50;99.90;;;;;;6194065;23;20021;-93
2021/01/12 11:57:24;;;;;;;1999.90;999.90;;;5.50;99.90;;;;;;6249329;23;20024;-94
2021/01/12 11:59:52;;;;;;;1999.90;999.90;;;5.50;99.90;;;;;;6250131;23;20016;-95
2021/01/12 12:02:30;;;;;;;1999.90;999.90;;;5.50;99.90;;;;;;6249169;23;20012;-95
2021/01/12 12:05:01;;;;;;;1999.90;999.90;;;5.50;99.90;;;;;;6249351;23;20016;-95
2021/01/12 12:07:33;;;;;;;1999.90;999.90;;;5.50;99.90;;;;;;6249251;23;20103;-95
2021/01/12 12:10:03;;;;;;;1999.90;999.90;;;5.50;99.90;;;;;;6249508;23;20363;-96
2021/01/12 12:12:30;;;;;;;1999.90;999.90;;;5.50;99.90;;;;;;6248088;23;20012;-94
2021/01/12 12:14:58;;;;;;;1999.90;999.90;;;5.50;99.90;;;;;;6248678;23;20122;-94
2021/01/12 12:17:59;;;;;;;1999.90;999.90;;;5.50;99.90;;;;;;6248436;23;20459;-94
2021/01/12 12:20:46;;;;;;;1999.90;999.90;;;5.50;99.90;;;;;;6245323;23;20016;-94
2021/01/12 12:23:36;;;;;;;1999.90;999.90;;;5.50;99.90;;;;;;6248417;23;20028;-96
2021/01/12 12:26:10;;;;;;;1999.90;999.90;;;5.50;99.90;;;;;;6249383;23;20444;-95
2021/01/12 12:28:56;;;;;;;;;;;;;;;;;;;;;
2021/01/12 12:31:53;;;;;;;1999.90;999.90;;;5.50;99.90;;;;;;6249739;23;20042;-96
2021/01/12 12:34:22;;;;;;;1999.90;999.90;;;5.60;99.90;;;;;;6249301;23;20022;-94
2021/01/12 12:36:57;;;;;;;1999.90;999.90;;;5.60;99.90;;;;;;6250204;23;20078;-95
2021/01/12 12:39:26;;;;;;;1999.90;999.90;;;5.60;99.90;;;;;;6249671;23;20024;-95
2021/01/12 12:41:53;;;;;;;1999.90;999.90;;;5.60;99.90;;;;;;6248625;23;20050;-95
2021/01/12 12:44:23;;;;;;;1999.90;999.90;;;5.60;99.90;;;;;;6248689;23;20020;-95
2021/01/12 12:46:51;;;;;;;1999.90;999.90;;;5.60;99.90;;;;;;6249539;23;20022;-96
2021/01/12 12:49:19;;;;;;;1999.90;999.90;;;5.50;99.90;;;;;;6248971;23;20074;-96
2021/01/12 12:51:52;;;;;;;1999.90;999.90;;;5.50;99.90;;;;;;6248011;23;20016;-95
2021/01/12 12:54:26;;;;;;;1999.90;999.90;;;5.50;99.90;;;;;;6248879;23;20039;-95
2021/01/12 12:56:59;;;;;;;1999.90;999.90;;;5.50;99.90;;;;;;6253136;23;20024;-95
2021/01/12 12:59:27;;;;;;;1999.90;999.90;;;5.50;99.90;;;;;;6251374;23;20316;-96
2021/01/12 13:02:09;;;;;;;1999.90;999.90;;;5.50;99.90;;;;;;6257738;23;20035;-96
2021/01/12 13:04:37;;;;;;;1999.90;999.90;;;5.50;99.90;;;;;;6250120;23;20432;-94
2021/01/12 13:07:08;;;;;;;1999.90;999.90;;;5.50;99.90;;;;;;6247862;23;20020;-94
2021/01/12 13:09:40;;;;;;;1999.90;999.90;;;5.50;99.90;;;;;;6248010;23;20032;-94
2021/01/12 13:12:26;;;;;;;1999.90;999.90;;;5.50;99.90;;;;;;6248417;23;20016;-95
2021/01/12 13:31:32;;;;;;;1999.90;999.90;;;5.60;99.90;;;;;;6249444;22;20016;-96
2021/01/12 13:34:05;;;;;;;1999.90;999.90;;;5.60;99.90;;;;;;6249365;23;20091;-95
2021/01/12 13:36:36;;;;;;;1999.90;999.90;;;5.50;99.90;;;;;;6251472;23;20183;-96
2021/01/12 13:39:14;;;;;;;1999.90;999.90;;;5.50;99.90;;;;;;6249424;23;20046;-96
2021/01/12 13:41:43;;;;;;;1999.90;999.90;;;5.50;99.90;;;;;;6249804;23;20427;-96
2021/01/12 13:44:15;;;;;;;1999.90;999.90;;;5.50;99.90;;;;;;6253427;23;20078;-96
2021/01/12 13:47:02;;;;;;;1999.90;999.90;;;5.50;99.90;;;;;;6256434;23;20024;-94
2021/01/12 13:49:31;;;;;;;1999.90;999.90;;;5.50;99.90;;;;;;6245052;23;20020;-96
2021/01/12 13:51:59;;;;;;;1999.90;999.90;;;5.50;99.90;;;;;;6260595;23;20068;-94
2021/01/12 13:58:03;;;;;;;1999.90;999.90;;;5.60;99.90;;;;;;6218396;22;20109;-94
2021/01/12 14:00:39;;;;;;;1999.90;999.90;;;5.50;99.90;;;;;;6261065;22;20019;-94
2021/01/12 14:06:02;;;;;;;1999.90;999.90;;;5.70;99.90;;;;;;6257655;22;20024;-96
2021/01/12 14:08:30;;;;;;;1999.90;999.90;;;5.60;99.90;;;;;;6251544;23;20063;-95
2021/01/12 14:10:57;;;;;;;1999.90;999.90;;;5.70;99.90;;;;;;6247644;23;20035;-96
2021/01/12 14:13:26;;;;;;;1999.90;999.90;;;5.70;99.90;;;;;;6247468;23;20012;-95
2021/01/12 14:15:56;;;;;;;1999.90;999.90;;;5.70;99.90;;;;;;6248577;23;20016;-95
2021/01/12 14:18:58;;;;;;;1999.90;999.90;;;5.70;99.90;;;;;;6251002;23;20051;-96
2021/01/12 14:22:09;;;;;;;1999.90;999.90;;;5.50;99.90;;;;;;6168048;22;20313;-96
2021/01/12 14:24:58;;;;;;;1999.90;999.90;;;5.50;99.90;;;;;;6240676;22;20028;-95
2021/01/12 14:27:56;;;;;;;1999.90;999.90;;;5.30;99.90;;;;;;6260452;23;20331;-96
2021/01/12 14:30:29;;;;;;;1999.90;999.90;;;5.30;99.90;;;;;;6258284;23;20011;-96